sensor_id;sensor_type;location;lat;lon;timestamp;P1;durP1;ratioP1;P2;durP2;ratioP2
84275;SDS011;74432;51.212;3.254;2024-01-27T00:01:34;16.95;;;6.25;;
84275;SDS011;74432;51.212;3.254;2024-01-27T00:04:00;16.08;;;5.82;;
84275;SDS011;74432;51.212;3.254;2024-01-27T00:06:26;12.88;;;5.80;;
84275;SDS011;74432;51.212;3.254;2024-01-27T00:08:51;13.38;;;5.65;;
84275;SDS011;74432;51.212;3.254;2024-01-27T00:11:17;18.17;;;6.75;;
84275;SDS011;74432;51.212;3.254;2024-01-27T00:13:43;16.40;;;6.00;;
84275;SDS011;74432;51.212;3.254;2024-01-27T00:16:09;12.88;;;5.82;;
84275;SDS011;74432;51.212;3.254;2024-01-27T00:18:36;17.40;;;6.03;;
84275;SDS011;74432;51.212;3.254;2024-01-27T00:21:02;13.20;;;6.25;;
84275;SDS011;74432;51.212;3.254;2024-01-27T00:23:29;18.88;;;6.07;;
84275;SDS011;74432;51.212;3.254;2024-01-27T00:25:54;7.80;;;5.18;;
84275;SDS011;74432;51.212;3.254;2024-01-27T00:28:20;12.55;;;6.03;;
84275;SDS011;74432;51.212;3.254;2024-01-27T00:30:46;20.35;;;6.10;;
84275;SDS011;74432;51.212;3.254;2024-01-27T00:33:12;15.63;;;5.88;;
84275;SDS011;74432;51.212;3.254;2024-01-27T00:35:37;14.30;;;5.25;;
84275;SDS011;74432;51.212;3.254;2024-01-27T00:38:03;17.25;;;6.25;;
84275;SDS011;74432;51.212;3.254;2024-01-27T00:40:29;15.98;;;5.90;;
84275;SDS011;74432;51.212;3.254;2024-01-27T00:42:54;16.23;;;5.35;;
84275;SDS011;74432;51.212;3.254;2024-01-27T00:45:20;10.73;;;5.15;;
84275;SDS011;74432;51.212;3.254;2024-01-27T00:47:48;10.95;;;5.20;;
84275;SDS011;74432;51.212;3.254;2024-01-27T00:50:15;11.88;;;5.28;;
84275;SDS011;74432;51.212;3.254;2024-01-27T00:52:41;20.30;;;6.35;;
84275;SDS011;74432;51.212;3.254;2024-01-27T00:55:07;18.98;;;5.68;;
84275;SDS011;74432;51.212;3.254;2024-01-27T00:57:36;11.27;;;4.85;;
84275;SDS011;74432;51.212;3.254;2024-01-27T01:00:05;18.98;;;5.75;;
84275;SDS011;74432;51.212;3.254;2024-01-27T01:02:32;17.17;;;6.82;;
84275;SDS011;74432;51.212;3.254;2024-01-27T01:04:58;14.18;;;6.25;;
84275;SDS011;74432;51.212;3.254;2024-01-27T01:07:27;11.00;;;5.40;;
84275;SDS011;74432;51.212;3.254;2024-01-27T01:09:52;17.08;;;5.80;;
84275;SDS011;74432;51.212;3.254;2024-01-27T01:12:18;17.08;;;5.82;;
84275;SDS011;74432;51.212;3.254;2024-01-27T01:14:44;15.52;;;5.82;;
84275;SDS011;74432;51.212;3.254;2024-01-27T01:17:09;12.85;;;5.30;;
84275;SDS011;74432;51.212;3.254;2024-01-27T01:19:38;15.40;;;5.57;;
84275;SDS011;74432;51.212;3.254;2024-01-27T01:22:05;16.23;;;5.40;;
84275;SDS011;74432;51.212;3.254;2024-01-27T01:24:32;14.50;;;5.55;;
84275;SDS011;74432;51.212;3.254;2024-01-27T01:26:57;16.05;;;6.20;;
84275;SDS011;74432;51.212;3.254;2024-01-27T01:29:27;12.73;;;5.80;;
84275;SDS011;74432;51.212;3.254;2024-01-27T01:31:53;14.65;;;5.65;;
84275;SDS011;74432;51.212;3.254;2024-01-27T01:34:18;11.02;;;5.55;;
84275;SDS011;74432;51.212;3.254;2024-01-27T01:36:44;16.70;;;6.05;;
84275;SDS011;74432;51.212;3.254;2024-01-27T01:39:10;14.50;;;5.72;;
84275;SDS011;74432;51.212;3.254;2024-01-27T01:41:38;15.77;;;6.22;;
84275;SDS011;74432;51.212;3.254;2024-01-27T01:44:04;14.40;;;6.07;;
84275;SDS011;74432;51.212;3.254;2024-01-27T01:46:29;17.13;;;6.05;;
84275;SDS011;74432;51.212;3.254;2024-01-27T01:48:55;16.63;;;5.65;;
84275;SDS011;74432;51.212;3.254;2024-01-27T01:51:21;15.63;;;5.63;;
84275;SDS011;74432;51.212;3.254;2024-01-27T01:53:48;16.15;;;5.15;;
84275;SDS011;74432;51.212;3.254;2024-01-27T01:56:14;15.00;;;5.50;;
84275;SDS011;74432;51.212;3.254;2024-01-27T01:58:42;15.85;;;6.00;;
84275;SDS011;74432;51.212;3.254;2024-01-27T02:01:08;13.25;;;5.78;;
84275;SDS011;74432;51.212;3.254;2024-01-27T02:03:34;15.20;;;5.85;;
84275;SDS011;74432;51.212;3.254;2024-01-27T02:06:00;15.02;;;6.00;;
84275;SDS011;74432;51.212;3.254;2024-01-27T02:08:25;17.95;;;5.75;;
84275;SDS011;74432;51.212;3.254;2024-01-27T02:10:51;15.77;;;6.75;;
84275;SDS011;74432;51.212;3.254;2024-01-27T02:13:17;18.10;;;5.85;;
84275;SDS011;74432;51.212;3.254;2024-01-27T02:15:46;19.00;;;5.75;;
84275;SDS011;74432;51.212;3.254;2024-01-27T02:18:13;13.40;;;5.60;;
84275;SDS011;74432;51.212;3.254;2024-01-27T02:20:39;15.73;;;5.47;;
84275;SDS011;74432;51.212;3.254;2024-01-27T02:23:04;14.45;;;6.00;;
84275;SDS011;74432;51.212;3.254;2024-01-27T02:25:31;16.10;;;5.65;;
84275;SDS011;74432;51.212;3.254;2024-01-27T02:27:57;10.23;;;4.97;;
84275;SDS011;74432;51.212;3.254;2024-01-27T02:30:23;13.48;;;5.75;;
84275;SDS011;74432;51.212;3.254;2024-01-27T02:32:49;13.88;;;6.05;;
84275;SDS011;74432;51.212;3.254;2024-01-27T02:35:15;15.38;;;6.10;;
84275;SDS011;74432;51.212;3.254;2024-01-27T02:37:41;17.50;;;5.40;;
84275;SDS011;74432;51.212;3.254;2024-01-27T02:40:07;13.82;;;5.60;;
84275;SDS011;74432;51.212;3.254;2024-01-27T02:42:34;15.27;;;5.38;;
84275;SDS011;74432;51.212;3.254;2024-01-27T02:45:01;12.35;;;5.57;;
84275;SDS011;74432;51.212;3.254;2024-01-27T02:47:27;11.45;;;5.18;;
84275;SDS011;74432;51.212;3.254;2024-01-27T02:49:53;12.63;;;5.30;;
84275;SDS011;74432;51.212;3.254;2024-01-27T02:52:18;15.73;;;5.53;;
84275;SDS011;74432;51.212;3.254;2024-01-27T02:54:44;17.70;;;5.43;;
84275;SDS011;74432;51.212;3.254;2024-01-27T02:57:10;12.85;;;5.43;;
84275;SDS011;74432;51.212;3.254;2024-01-27T02:59:36;19.30;;;5.35;;
84275;SDS011;74432;51.212;3.254;2024-01-27T03:02:04;18.55;;;5.65;;
84275;SDS011;74432;51.212;3.254;2024-01-27T03:04:30;16.90;;;6.15;;
84275;SDS011;74432;51.212;3.254;2024-01-27T03:06:56;14.80;;;5.50;;
84275;SDS011;74432;51.212;3.254;2024-01-27T03:09:21;15.90;;;5.78;;
84275;SDS011;74432;51.212;3.254;2024-01-27T03:11:47;13.93;;;5.63;;
84275;SDS011;74432;51.212;3.254;2024-01-27T03:14:13;14.48;;;6.25;;
84275;SDS011;74432;51.212;3.254;2024-01-27T03:16:39;14.98;;;5.72;;
84275;SDS011;74432;51.212;3.254;2024-01-27T03:19:05;13.50;;;5.30;;
84275;SDS011;74432;51.212;3.254;2024-01-27T03:21:31;11.38;;;5.63;;
84275;SDS011;74432;51.212;3.254;2024-01-27T03:23:57;15.50;;;5.75;;
84275;SDS011;74432;51.212;3.254;2024-01-27T03:26:23;18.90;;;6.30;;
84275;SDS011;74432;51.212;3.254;2024-01-27T03:28:48;8.90;;;4.85;;
84275;SDS011;74432;51.212;3.254;2024-01-27T03:31:14;17.67;;;6.20;;
84275;SDS011;74432;51.212;3.254;2024-01-27T03:33:40;16.60;;;5.03;;
84275;SDS011;74432;51.212;3.254;2024-01-27T03:36:09;17.73;;;5.50;;
84275;SDS011;74432;51.212;3.254;2024-01-27T03:38:36;15.98;;;5.25;;
84275;SDS011;74432;51.212;3.254;2024-01-27T03:41:02;11.15;;;4.85;;
84275;SDS011;74432;51.212;3.254;2024-01-27T03:43:29;13.38;;;5.55;;
84275;SDS011;74432;51.212;3.254;2024-01-27T03:45:56;14.20;;;5.82;;
84275;SDS011;74432;51.212;3.254;2024-01-27T03:48:22;13.02;;;5.35;;
84275;SDS011;74432;51.212;3.254;2024-01-27T03:50:47;12.43;;;4.93;;
84275;SDS011;74432;51.212;3.254;2024-01-27T03:53:13;13.88;;;5.15;;
84275;SDS011;74432;51.212;3.254;2024-01-27T03:55:39;13.15;;;5.13;;
84275;SDS011;74432;51.212;3.254;2024-01-27T03:58:04;11.07;;;4.97;;
84275;SDS011;74432;51.212;3.254;2024-01-27T04:00:30;19.48;;;5.70;;
84275;SDS011;74432;51.212;3.254;2024-01-27T04:02:58;19.05;;;5.35;;
84275;SDS011;74432;51.212;3.254;2024-01-27T04:05:24;17.33;;;5.57;;
84275;SDS011;74432;51.212;3.254;2024-01-27T04:07:50;12.90;;;4.90;;
84275;SDS011;74432;51.212;3.254;2024-01-27T04:10:17;15.90;;;5.22;;
84275;SDS011;74432;51.212;3.254;2024-01-27T04:12:43;14.63;;;5.30;;
84275;SDS011;74432;51.212;3.254;2024-01-27T04:15:09;13.75;;;5.72;;
84275;SDS011;74432;51.212;3.254;2024-01-27T04:17:36;15.80;;;6.03;;
84275;SDS011;74432;51.212;3.254;2024-01-27T04:20:02;16.70;;;4.80;;
84275;SDS011;74432;51.212;3.254;2024-01-27T04:22:29;22.52;;;5.00;;
84275;SDS011;74432;51.212;3.254;2024-01-27T04:24:55;16.70;;;5.43;;
84275;SDS011;74432;51.212;3.254;2024-01-27T04:27:21;14.52;;;5.15;;
84275;SDS011;74432;51.212;3.254;2024-01-27T04:29:47;9.48;;;4.57;;
84275;SDS011;74432;51.212;3.254;2024-01-27T04:32:13;14.32;;;4.43;;
84275;SDS011;74432;51.212;3.254;2024-01-27T04:34:38;9.00;;;4.70;;
84275;SDS011;74432;51.212;3.254;2024-01-27T04:37:04;14.93;;;5.00;;
84275;SDS011;74432;51.212;3.254;2024-01-27T04:39:30;16.77;;;4.78;;
84275;SDS011;74432;51.212;3.254;2024-01-27T04:41:56;12.80;;;4.25;;
84275;SDS011;74432;51.212;3.254;2024-01-27T04:44:22;11.45;;;4.78;;
84275;SDS011;74432;51.212;3.254;2024-01-27T04:46:48;18.10;;;4.85;;
84275;SDS011;74432;51.212;3.254;2024-01-27T04:49:14;10.93;;;5.00;;
84275;SDS011;74432;51.212;3.254;2024-01-27T04:51:40;12.63;;;5.57;;
84275;SDS011;74432;51.212;3.254;2024-01-27T04:54:06;11.82;;;4.95;;
84275;SDS011;74432;51.212;3.254;2024-01-27T04:56:33;12.70;;;4.80;;
84275;SDS011;74432;51.212;3.254;2024-01-27T04:58:59;16.08;;;6.30;;
84275;SDS011;74432;51.212;3.254;2024-01-27T05:01:24;9.88;;;5.18;;
84275;SDS011;74432;51.212;3.254;2024-01-27T05:03:50;21.45;;;5.80;;
84275;SDS011;74432;51.212;3.254;2024-01-27T05:06:15;18.42;;;5.97;;
84275;SDS011;74432;51.212;3.254;2024-01-27T05:08:42;14.02;;;4.70;;
84275;SDS011;74432;51.212;3.254;2024-01-27T05:11:08;12.68;;;5.03;;
84275;SDS011;74432;51.212;3.254;2024-01-27T05:13:34;15.50;;;4.72;;
84275;SDS011;74432;51.212;3.254;2024-01-27T05:16:00;16.85;;;4.43;;
84275;SDS011;74432;51.212;3.254;2024-01-27T05:18:25;18.65;;;5.30;;
84275;SDS011;74432;51.212;3.254;2024-01-27T05:20:51;15.95;;;5.35;;
84275;SDS011;74432;51.212;3.254;2024-01-27T05:23:17;18.90;;;5.75;;
84275;SDS011;74432;51.212;3.254;2024-01-27T05:25:42;12.10;;;5.00;;
84275;SDS011;74432;51.212;3.254;2024-01-27T05:28:08;12.65;;;4.75;;
84275;SDS011;74432;51.212;3.254;2024-01-27T05:30:34;18.15;;;5.30;;
84275;SDS011;74432;51.212;3.254;2024-01-27T05:32:59;11.40;;;5.30;;
84275;SDS011;74432;51.212;3.254;2024-01-27T05:35:25;11.77;;;5.45;;
84275;SDS011;74432;51.212;3.254;2024-01-27T05:37:50;15.95;;;5.13;;
84275;SDS011;74432;51.212;3.254;2024-01-27T05:40:16;15.32;;;5.60;;
84275;SDS011;74432;51.212;3.254;2024-01-27T05:42:42;13.45;;;5.47;;
84275;SDS011;74432;51.212;3.254;2024-01-27T05:45:10;14.20;;;5.45;;
84275;SDS011;74432;51.212;3.254;2024-01-27T05:47:36;12.52;;;5.32;;
84275;SDS011;74432;51.212;3.254;2024-01-27T05:50:01;21.77;;;6.43;;
84275;SDS011;74432;51.212;3.254;2024-01-27T05:52:28;17.15;;;6.28;;
84275;SDS011;74432;51.212;3.254;2024-01-27T05:54:54;15.27;;;5.45;;
84275;SDS011;74432;51.212;3.254;2024-01-27T05:57:20;11.38;;;5.60;;
84275;SDS011;74432;51.212;3.254;2024-01-27T05:59:45;11.18;;;5.53;;
84275;SDS011;74432;51.212;3.254;2024-01-27T06:02:11;15.07;;;5.65;;
84275;SDS011;74432;51.212;3.254;2024-01-27T06:04:37;15.82;;;6.13;;
84275;SDS011;74432;51.212;3.254;2024-01-27T06:07:02;13.77;;;6.43;;
84275;SDS011;74432;51.212;3.254;2024-01-27T06:09:28;12.27;;;5.43;;
84275;SDS011;74432;51.212;3.254;2024-01-27T06:11:54;14.25;;;5.75;;
84275;SDS011;74432;51.212;3.254;2024-01-27T06:14:20;15.85;;;5.43;;
84275;SDS011;74432;51.212;3.254;2024-01-27T06:16:45;13.85;;;6.25;;
84275;SDS011;74432;51.212;3.254;2024-01-27T06:19:11;15.02;;;6.40;;
84275;SDS011;74432;51.212;3.254;2024-01-27T06:21:36;15.25;;;6.53;;
84275;SDS011;74432;51.212;3.254;2024-01-27T06:24:02;13.75;;;6.72;;
84275;SDS011;74432;51.212;3.254;2024-01-27T06:26:28;16.35;;;6.43;;
84275;SDS011;74432;51.212;3.254;2024-01-27T06:28:53;14.25;;;5.50;;
84275;SDS011;74432;51.212;3.254;2024-01-27T06:31:19;15.50;;;6.15;;
84275;SDS011;74432;51.212;3.254;2024-01-27T06:33:45;14.48;;;6.18;;
84275;SDS011;74432;51.212;3.254;2024-01-27T06:36:10;19.50;;;6.50;;
84275;SDS011;74432;51.212;3.254;2024-01-27T06:38:39;16.70;;;6.05;;
84275;SDS011;74432;51.212;3.254;2024-01-27T06:41:05;10.55;;;5.90;;
84275;SDS011;74432;51.212;3.254;2024-01-27T06:43:30;23.55;;;6.93;;
84275;SDS011;74432;51.212;3.254;2024-01-27T06:45:56;17.52;;;6.25;;
84275;SDS011;74432;51.212;3.254;2024-01-27T06:48:22;13.43;;;6.05;;
84275;SDS011;74432;51.212;3.254;2024-01-27T06:50:50;18.92;;;6.10;;
84275;SDS011;74432;51.212;3.254;2024-01-27T06:53:18;14.32;;;6.03;;
84275;SDS011;74432;51.212;3.254;2024-01-27T06:55:44;16.90;;;6.50;;
84275;SDS011;74432;51.212;3.254;2024-01-27T06:58:09;15.52;;;6.57;;
84275;SDS011;74432;51.212;3.254;2024-01-27T07:00:35;17.60;;;6.57;;
84275;SDS011;74432;51.212;3.254;2024-01-27T07:03:01;18.95;;;6.60;;
84275;SDS011;74432;51.212;3.254;2024-01-27T07:05:27;20.10;;;6.93;;
84275;SDS011;74432;51.212;3.254;2024-01-27T07:07:53;16.80;;;6.95;;
84275;SDS011;74432;51.212;3.254;2024-01-27T07:10:19;11.27;;;6.18;;
84275;SDS011;74432;51.212;3.254;2024-01-27T07:12:45;20.98;;;7.20;;
84275;SDS011;74432;51.212;3.254;2024-01-27T07:15:10;20.52;;;7.50;;
84275;SDS011;74432;51.212;3.254;2024-01-27T07:17:36;20.85;;;8.00;;
84275;SDS011;74432;51.212;3.254;2024-01-27T07:20:02;18.00;;;7.55;;
84275;SDS011;74432;51.212;3.254;2024-01-27T07:22:28;21.63;;;8.05;;
84275;SDS011;74432;51.212;3.254;2024-01-27T07:24:53;22.98;;;7.82;;
84275;SDS011;74432;51.212;3.254;2024-01-27T07:27:22;14.40;;;6.82;;
84275;SDS011;74432;51.212;3.254;2024-01-27T07:29:48;16.48;;;7.32;;
84275;SDS011;74432;51.212;3.254;2024-01-27T07:32:14;21.88;;;8.23;;
84275;SDS011;74432;51.212;3.254;2024-01-27T07:34:43;17.48;;;7.78;;
84275;SDS011;74432;51.212;3.254;2024-01-27T07:37:09;16.58;;;7.35;;
84275;SDS011;74432;51.212;3.254;2024-01-27T07:39:35;15.75;;;7.70;;
84275;SDS011;74432;51.212;3.254;2024-01-27T07:42:01;17.33;;;7.70;;
84275;SDS011;74432;51.212;3.254;2024-01-27T07:44:26;16.35;;;7.72;;
84275;SDS011;74432;51.212;3.254;2024-01-27T07:46:52;17.67;;;8.00;;
84275;SDS011;74432;51.212;3.254;2024-01-27T07:49:18;14.27;;;7.57;;
84275;SDS011;74432;51.212;3.254;2024-01-27T07:51:44;18.38;;;8.13;;
84275;SDS011;74432;51.212;3.254;2024-01-27T07:54:10;18.27;;;8.35;;
84275;SDS011;74432;51.212;3.254;2024-01-27T07:56:35;21.50;;;8.15;;
84275;SDS011;74432;51.212;3.254;2024-01-27T07:59:02;18.70;;;7.88;;
84275;SDS011;74432;51.212;3.254;2024-01-27T08:01:28;19.27;;;8.23;;
84275;SDS011;74432;51.212;3.254;2024-01-27T08:03:54;19.08;;;8.27;;
84275;SDS011;74432;51.212;3.254;2024-01-27T08:06:27;17.67;;;8.38;;
84275;SDS011;74432;51.212;3.254;2024-01-27T08:08:54;19.45;;;8.65;;
84275;SDS011;74432;51.212;3.254;2024-01-27T08:11:20;17.98;;;8.57;;
84275;SDS011;74432;51.212;3.254;2024-01-27T08:13:46;21.02;;;8.80;;
84275;SDS011;74432;51.212;3.254;2024-01-27T08:16:12;23.08;;;8.25;;
84275;SDS011;74432;51.212;3.254;2024-01-27T08:18:39;19.95;;;8.75;;
84275;SDS011;74432;51.212;3.254;2024-01-27T08:21:07;22.17;;;9.82;;
84275;SDS011;74432;51.212;3.254;2024-01-27T08:23:33;22.77;;;8.43;;
84275;SDS011;74432;51.212;3.254;2024-01-27T08:25:59;21.38;;;9.30;;
84275;SDS011;74432;51.212;3.254;2024-01-27T08:28:25;25.75;;;8.82;;
84275;SDS011;74432;51.212;3.254;2024-01-27T08:30:51;25.38;;;9.40;;
84275;SDS011;74432;51.212;3.254;2024-01-27T08:33:16;18.52;;;8.57;;
84275;SDS011;74432;51.212;3.254;2024-01-27T08:35:42;24.23;;;9.82;;
84275;SDS011;74432;51.212;3.254;2024-01-27T08:38:08;22.63;;;9.68;;
84275;SDS011;74432;51.212;3.254;2024-01-27T08:40:37;21.50;;;10.32;;
84275;SDS011;74432;51.212;3.254;2024-01-27T08:43:03;24.38;;;10.85;;
84275;SDS011;74432;51.212;3.254;2024-01-27T08:45:29;24.45;;;10.77;;
84275;SDS011;74432;51.212;3.254;2024-01-27T08:47:54;19.33;;;9.90;;
84275;SDS011;74432;51.212;3.254;2024-01-27T08:50:20;22.83;;;9.57;;
84275;SDS011;74432;51.212;3.254;2024-01-27T08:52:46;24.42;;;10.63;;
84275;SDS011;74432;51.212;3.254;2024-01-27T08:55:12;18.98;;;10.07;;
84275;SDS011;74432;51.212;3.254;2024-01-27T08:57:38;29.95;;;11.93;;
84275;SDS011;74432;51.212;3.254;2024-01-27T09:00:04;31.85;;;12.45;;
84275;SDS011;74432;51.212;3.254;2024-01-27T09:02:30;29.25;;;11.45;;
84275;SDS011;74432;51.212;3.254;2024-01-27T09:04:55;28.02;;;12.68;;
84275;SDS011;74432;51.212;3.254;2024-01-27T09:07:21;30.88;;;13.05;;
84275;SDS011;74432;51.212;3.254;2024-01-27T09:09:48;22.92;;;10.90;;
84275;SDS011;74432;51.212;3.254;2024-01-27T09:12:14;31.67;;;11.80;;
84275;SDS011;74432;51.212;3.254;2024-01-27T09:14:40;27.17;;;11.85;;
84275;SDS011;74432;51.212;3.254;2024-01-27T09:17:06;28.05;;;11.88;;
84275;SDS011;74432;51.212;3.254;2024-01-27T09:19:32;24.17;;;10.25;;
84275;SDS011;74432;51.212;3.254;2024-01-27T09:21:57;24.90;;;10.82;;
84275;SDS011;74432;51.212;3.254;2024-01-27T09:24:23;21.73;;;9.63;;
84275;SDS011;74432;51.212;3.254;2024-01-27T09:26:49;19.83;;;9.68;;
84275;SDS011;74432;51.212;3.254;2024-01-27T09:29:14;24.33;;;9.85;;
84275;SDS011;74432;51.212;3.254;2024-01-27T09:31:40;26.85;;;9.95;;
84275;SDS011;74432;51.212;3.254;2024-01-27T09:34:06;21.05;;;9.70;;
84275;SDS011;74432;51.212;3.254;2024-01-27T09:36:31;27.38;;;10.48;;
84275;SDS011;74432;51.212;3.254;2024-01-27T09:38:57;27.85;;;9.93;;
84275;SDS011;74432;51.212;3.254;2024-01-27T09:41:24;22.05;;;10.13;;
84275;SDS011;74432;51.212;3.254;2024-01-27T09:43:53;25.23;;;10.25;;
84275;SDS011;74432;51.212;3.254;2024-01-27T09:46:23;26.85;;;10.30;;
84275;SDS011;74432;51.212;3.254;2024-01-27T09:48:49;22.92;;;9.48;;
84275;SDS011;74432;51.212;3.254;2024-01-27T09:51:15;25.02;;;9.82;;
84275;SDS011;74432;51.212;3.254;2024-01-27T09:53:41;20.85;;;9.57;;
84275;SDS011;74432;51.212;3.254;2024-01-27T09:56:06;20.98;;;8.85;;
84275;SDS011;74432;51.212;3.254;2024-01-27T09:58:33;24.17;;;10.38;;
84275;SDS011;74432;51.212;3.254;2024-01-27T10:01:00;23.05;;;10.07;;
84275;SDS011;74432;51.212;3.254;2024-01-27T10:03:26;29.48;;;11.02;;
84275;SDS011;74432;51.212;3.254;2024-01-27T10:05:53;22.60;;;9.48;;
84275;SDS011;74432;51.212;3.254;2024-01-27T10:08:20;20.10;;;9.82;;
84275;SDS011;74432;51.212;3.254;2024-01-27T10:10:47;20.73;;;10.02;;
84275;SDS011;74432;51.212;3.254;2024-01-27T10:13:18;21.13;;;10.27;;
84275;SDS011;74432;51.212;3.254;2024-01-27T10:15:43;22.10;;;9.60;;
84275;SDS011;74432;51.212;3.254;2024-01-27T10:18:09;22.38;;;9.60;;
84275;SDS011;74432;51.212;3.254;2024-01-27T10:20:39;21.48;;;8.70;;
84275;SDS011;74432;51.212;3.254;2024-01-27T10:23:11;20.48;;;8.98;;
84275;SDS011;74432;51.212;3.254;2024-01-27T10:25:38;17.67;;;8.70;;
84275;SDS011;74432;51.212;3.254;2024-01-27T10:28:08;17.73;;;9.05;;
84275;SDS011;74432;51.212;3.254;2024-01-27T10:30:34;22.80;;;9.20;;
84275;SDS011;74432;51.212;3.254;2024-01-27T10:33:00;22.95;;;9.57;;
84275;SDS011;74432;51.212;3.254;2024-01-27T10:35:27;25.30;;;8.93;;
84275;SDS011;74432;51.212;3.254;2024-01-27T10:37:54;24.05;;;9.02;;
84275;SDS011;74432;51.212;3.254;2024-01-27T10:40:20;21.05;;;9.48;;
84275;SDS011;74432;51.212;3.254;2024-01-27T10:42:58;21.50;;;8.80;;
84275;SDS011;74432;51.212;3.254;2024-01-27T10:45:32;21.75;;;8.40;;
84275;SDS011;74432;51.212;3.254;2024-01-27T10:48:03;16.35;;;8.65;;
84275;SDS011;74432;51.212;3.254;2024-01-27T10:50:32;19.05;;;8.45;;
84275;SDS011;74432;51.212;3.254;2024-01-27T10:53:09;17.67;;;7.80;;
84275;SDS011;74432;51.212;3.254;2024-01-27T10:55:40;21.65;;;8.52;;
84275;SDS011;74432;51.212;3.254;2024-01-27T10:58:08;16.88;;;7.70;;
84275;SDS011;74432;51.212;3.254;2024-01-27T11:00:37;16.95;;;8.48;;
84275;SDS011;74432;51.212;3.254;2024-01-27T11:03:03;18.70;;;8.23;;
84275;SDS011;74432;51.212;3.254;2024-01-27T11:05:31;19.75;;;8.43;;
84275;SDS011;74432;51.212;3.254;2024-01-27T11:08:00;19.45;;;7.60;;
84275;SDS011;74432;51.212;3.254;2024-01-27T11:10:27;22.55;;;8.13;;
84275;SDS011;74432;51.212;3.254;2024-01-27T11:13:00;14.75;;;7.05;;
84275;SDS011;74432;51.212;3.254;2024-01-27T11:15:27;14.88;;;6.72;;
84275;SDS011;74432;51.212;3.254;2024-01-27T11:17:56;23.80;;;8.02;;
84275;SDS011;74432;51.212;3.254;2024-01-27T11:20:24;14.53;;;7.23;;
84275;SDS011;74432;51.212;3.254;2024-01-27T11:22:50;16.95;;;7.28;;
84275;SDS011;74432;51.212;3.254;2024-01-27T11:25:17;15.95;;;7.50;;
84275;SDS011;74432;51.212;3.254;2024-01-27T11:27:44;19.05;;;7.43;;
84275;SDS011;74432;51.212;3.254;2024-01-27T11:32:52;17.60;;;6.70;;
84275;SDS011;74432;51.212;3.254;2024-01-27T11:35:19;17.92;;;6.80;;
84275;SDS011;74432;51.212;3.254;2024-01-27T11:37:45;17.13;;;7.30;;
84275;SDS011;74432;51.212;3.254;2024-01-27T11:40:11;15.95;;;6.93;;
84275;SDS011;74432;51.212;3.254;2024-01-27T11:42:37;16.08;;;5.97;;
84275;SDS011;74432;51.212;3.254;2024-01-27T11:45:03;23.23;;;8.00;;
84275;SDS011;74432;51.212;3.254;2024-01-27T11:47:29;24.33;;;7.68;;
84275;SDS011;74432;51.212;3.254;2024-01-27T11:49:55;18.48;;;6.10;;
84275;SDS011;74432;51.212;3.254;2024-01-27T11:52:22;15.63;;;6.80;;
84275;SDS011;74432;51.212;3.254;2024-01-27T11:57:24;20.63;;;6.05;;
84275;SDS011;74432;51.212;3.254;2024-01-27T11:59:50;17.00;;;5.63;;
84275;SDS011;74432;51.212;3.254;2024-01-27T12:02:17;25.50;;;6.47;;
84275;SDS011;74432;51.212;3.254;2024-01-27T12:04:43;23.98;;;6.45;;
84275;SDS011;74432;51.212;3.254;2024-01-27T12:07:09;15.80;;;5.50;;
84275;SDS011;74432;51.212;3.254;2024-01-27T12:09:35;17.60;;;5.95;;
84275;SDS011;74432;51.212;3.254;2024-01-27T12:12:02;18.55;;;7.72;;
84275;SDS011;74432;51.212;3.254;2024-01-27T12:14:44;14.25;;;5.80;;
84275;SDS011;74432;51.212;3.254;2024-01-27T12:17:11;13.25;;;5.82;;
84275;SDS011;74432;51.212;3.254;2024-01-27T12:19:38;16.23;;;5.78;;
84275;SDS011;74432;51.212;3.254;2024-01-27T12:22:05;17.23;;;6.28;;
84275;SDS011;74432;51.212;3.254;2024-01-27T12:24:45;21.02;;;7.20;;
84275;SDS011;74432;51.212;3.254;2024-01-27T12:27:11;16.88;;;7.43;;
84275;SDS011;74432;51.212;3.254;2024-01-27T12:29:36;20.65;;;6.53;;
84275;SDS011;74432;51.212;3.254;2024-01-27T12:32:02;16.05;;;6.85;;
84275;SDS011;74432;51.212;3.254;2024-01-27T12:34:28;17.17;;;6.15;;
84275;SDS011;74432;51.212;3.254;2024-01-27T12:36:54;19.33;;;6.78;;
84275;SDS011;74432;51.212;3.254;2024-01-27T12:39:20;26.20;;;6.35;;
84275;SDS011;74432;51.212;3.254;2024-01-27T12:41:46;24.33;;;6.40;;
84275;SDS011;74432;51.212;3.254;2024-01-27T12:44:12;17.60;;;5.80;;
84275;SDS011;74432;51.212;3.254;2024-01-27T12:46:37;14.30;;;5.30;;
84275;SDS011;74432;51.212;3.254;2024-01-27T12:49:03;14.25;;;5.13;;
84275;SDS011;74432;51.212;3.254;2024-01-27T12:51:30;22.05;;;7.05;;
84275;SDS011;74432;51.212;3.254;2024-01-27T12:53:56;22.40;;;8.10;;
84275;SDS011;74432;51.212;3.254;2024-01-27T12:56:21;18.38;;;6.13;;
84275;SDS011;74432;51.212;3.254;2024-01-27T12:58:47;18.05;;;5.57;;
84275;SDS011;74432;51.212;3.254;2024-01-27T13:01:13;27.98;;;5.95;;
84275;SDS011;74432;51.212;3.254;2024-01-27T13:03:39;14.30;;;4.50;;
84275;SDS011;74432;51.212;3.254;2024-01-27T13:06:04;19.58;;;5.53;;
84275;SDS011;74432;51.212;3.254;2024-01-27T13:08:30;14.98;;;5.20;;
84275;SDS011;74432;51.212;3.254;2024-01-27T13:10:56;12.75;;;4.70;;
84275;SDS011;74432;51.212;3.254;2024-01-27T13:13:21;19.13;;;4.90;;
84275;SDS011;74432;51.212;3.254;2024-01-27T13:15:47;15.70;;;5.60;;
84275;SDS011;74432;51.212;3.254;2024-01-27T13:18:13;16.40;;;4.68;;
84275;SDS011;74432;51.212;3.254;2024-01-27T13:20:38;16.75;;;5.05;;
84275;SDS011;74432;51.212;3.254;2024-01-27T13:23:07;13.90;;;4.35;;
84275;SDS011;74432;51.212;3.254;2024-01-27T13:25:33;17.00;;;4.70;;
84275;SDS011;74432;51.212;3.254;2024-01-27T13:27:58;12.82;;;3.97;;
84275;SDS011;74432;51.212;3.254;2024-01-27T13:30:24;14.60;;;4.03;;
84275;SDS011;74432;51.212;3.254;2024-01-27T13:32:50;12.48;;;3.85;;
84275;SDS011;74432;51.212;3.254;2024-01-27T13:35:16;12.82;;;4.40;;
84275;SDS011;74432;51.212;3.254;2024-01-27T13:37:41;15.77;;;4.78;;
84275;SDS011;74432;51.212;3.254;2024-01-27T13:40:07;15.93;;;4.55;;
84275;SDS011;74432;51.212;3.254;2024-01-27T13:42:36;16.08;;;4.53;;
84275;SDS011;74432;51.212;3.254;2024-01-27T13:45:02;16.70;;;5.40;;
84275;SDS011;74432;51.212;3.254;2024-01-27T13:47:28;19.42;;;6.15;;
84275;SDS011;74432;51.212;3.254;2024-01-27T13:49:54;16.50;;;4.10;;
84275;SDS011;74432;51.212;3.254;2024-01-27T13:52:20;18.73;;;4.97;;
84275;SDS011;74432;51.212;3.254;2024-01-27T13:54:46;17.17;;;5.82;;
84275;SDS011;74432;51.212;3.254;2024-01-27T13:57:12;14.75;;;4.07;;
84275;SDS011;74432;51.212;3.254;2024-01-27T13:59:39;12.50;;;4.10;;
84275;SDS011;74432;51.212;3.254;2024-01-27T14:02:05;15.00;;;3.92;;
84275;SDS011;74432;51.212;3.254;2024-01-27T14:04:31;15.32;;;4.35;;
84275;SDS011;74432;51.212;3.254;2024-01-27T14:06:57;12.05;;;4.38;;
84275;SDS011;74432;51.212;3.254;2024-01-27T14:09:23;10.68;;;3.55;;
84275;SDS011;74432;51.212;3.254;2024-01-27T14:11:48;15.18;;;4.05;;
84275;SDS011;74432;51.212;3.254;2024-01-27T14:14:17;15.60;;;3.60;;
84275;SDS011;74432;51.212;3.254;2024-01-27T14:16:43;16.08;;;3.70;;
84275;SDS011;74432;51.212;3.254;2024-01-27T14:19:10;15.55;;;3.38;;
84275;SDS011;74432;51.212;3.254;2024-01-27T14:21:36;18.15;;;3.90;;
84275;SDS011;74432;51.212;3.254;2024-01-27T14:24:02;11.77;;;4.25;;
84275;SDS011;74432;51.212;3.254;2024-01-27T14:26:30;14.68;;;3.78;;
84275;SDS011;74432;51.212;3.254;2024-01-27T14:28:56;15.82;;;3.83;;
84275;SDS011;74432;51.212;3.254;2024-01-27T14:31:22;15.10;;;3.85;;
84275;SDS011;74432;51.212;3.254;2024-01-27T14:33:48;15.88;;;3.90;;